sensor_id;sensor_type;location;lat;lon;timestamp;pressure;altitude;pressure_sealevel;temperature;humidity
13348;BME280;6743;49.934;9.138;2023-02-02T00:02:00;100918.28;;;6.29;100.00
13348;BME280;6743;49.934;9.138;2023-02-02T00:04:27;100909.56;;;6.29;100.00
13348;BME280;6743;49.934;9.138;2023-02-02T00:06:54;100910.50;;;6.28;100.00
13348;BME280;6743;49.934;9.138;2023-02-02T00:09:22;100898.19;;;6.28;100.00
13348;BME280;6743;49.934;9.138;2023-02-02T00:11:49;100901.87;;;6.26;100.00
13348;BME280;6743;49.934;9.138;2023-02-02T00:14:16;100881.19;;;6.10;100.00
13348;BME280;6743;49.934;9.138;2023-02-02T00:16:43;100902.13;;;6.23;100.00
13348;BME280;6743;49.934;9.138;2023-02-02T00:19:16;100900.31;;;6.23;100.00
13348;BME280;6743;49.934;9.138;2023-02-02T00:21:42;100907.53;;;6.21;100.00
13348;BME280;6743;49.934;9.138;2023-02-02T00:24:10;100902.25;;;6.21;100.00
13348;BME280;6743;49.934;9.138;2023-02-02T00:26:37;100908.47;;;6.20;100.00
13348;BME280;6743;49.934;9.138;2023-02-02T00:29:06;100910.28;;;6.20;100.00
13348;BME280;6743;49.934;9.138;2023-02-02T00:31:32;100899.75;;;6.20;100.00
13348;BME280;6743;49.934;9.138;2023-02-02T00:33:59;100905.00;;;6.20;100.00
13348;BME280;6743;49.934;9.138;2023-02-02T00:36:25;100895.91;;;6.13;100.00
13348;BME280;6743;49.934;9.138;2023-02-02T00:38:51;100878.91;;;6.06;100.00
13348;BME280;6743;49.934;9.138;2023-02-02T00:41:18;100900.59;;;6.20;100.00
13348;BME280;6743;49.934;9.138;2023-02-02T00:43:44;100897.84;;;6.22;100.00
13348;BME280;6743;49.934;9.138;2023-02-02T00:46:32;100896.16;;;6.21;100.00
13348;BME280;6743;49.934;9.138;2023-02-02T00:48:57;100894.47;;;6.20;100.00
13348;BME280;6743;49.934;9.138;2023-02-02T00:51:23;100882.38;;;6.06;100.00
13348;BME280;6743;49.934;9.138;2023-02-02T00:53:49;100895.53;;;6.17;100.00
13348;BME280;6743;49.934;9.138;2023-02-02T00:56:15;100893.03;;;6.16;100.00
13348;BME280;6743;49.934;9.138;2023-02-02T00:58:41;100897.47;;;6.15;100.00
13348;BME280;6743;49.934;9.138;2023-02-02T01:01:14;100882.62;;;6.14;100.00
13348;BME280;6743;49.934;9.138;2023-02-02T01:03:41;100888.72;;;6.15;100.00
13348;BME280;6743;49.934;9.138;2023-02-02T01:06:07;100890.53;;;6.14;100.00
13348;BME280;6743;49.934;9.138;2023-02-02T01:08:33;100885.25;;;6.14;100.00
13348;BME280;6743;49.934;9.138;2023-02-02T01:10:59;100882.00;;;6.11;100.00
13348;BME280;6743;49.934;9.138;2023-02-02T01:13:25;100892.22;;;6.15;100.00
13348;BME280;6743;49.934;9.138;2023-02-02T01:15:54;100891.37;;;6.15;100.00
13348;BME280;6743;49.934;9.138;2023-02-02T01:18:20;100899.13;;;6.16;100.00
13348;BME280;6743;49.934;9.138;2023-02-02T01:20:47;100899.97;;;6.17;100.00
13348;BME280;6743;49.934;9.138;2023-02-02T01:23:12;100905.97;;;6.19;100.00
13348;BME280;6743;49.934;9.138;2023-02-02T01:25:38;100903.31;;;6.19;100.00
13348;BME280;6743;49.934;9.138;2023-02-02T01:28:04;100913.75;;;6.20;100.00
13348;BME280;6743;49.934;9.138;2023-02-02T01:30:30;100913.75;;;6.20;100.00
13348;BME280;6743;49.934;9.138;2023-02-02T01:32:56;100920.69;;;6.21;100.00
13348;BME280;6743;49.934;9.138;2023-02-02T01:35:22;100912.66;;;6.23;100.00
13348;BME280;6743;49.934;9.138;2023-02-02T01:37:49;100914.59;;;6.21;100.00
13348;BME280;6743;49.934;9.138;2023-02-02T01:40:15;100916.38;;;6.20;100.00
13348;BME280;6743;49.934;9.138;2023-02-02T01:42:41;100913.88;;;6.19;100.00
13348;BME280;6743;49.934;9.138;2023-02-02T01:45:20;100899.97;;;6.17;100.00
13348;BME280;6743;49.934;9.138;2023-02-02T01:47:51;100892.31;;;6.14;100.00
13348;BME280;6743;49.934;9.138;2023-02-02T01:50:18;100901.91;;;6.15;100.00
13348;BME280;6743;49.934;9.138;2023-02-02T01:52:48;100907.87;;;6.17;100.00
13348;BME280;6743;49.934;9.138;2023-02-02T01:55:17;100898.28;;;6.16;100.00
13348;BME280;6743;49.934;9.138;2023-02-02T01:57:48;100893.03;;;6.16;100.00
13348;BME280;6743;49.934;9.138;2023-02-02T02:00:32;100894.00;;;6.15;100.00
13348;BME280;6743;49.934;9.138;2023-02-02T02:03:00;100889.69;;;6.14;100.00
13348;BME280;6743;49.934;9.138;2023-02-02T02:05:29;100894.97;;;6.14;100.00
13348;BME280;6743;49.934;9.138;2023-02-02T02:08:01;100880.81;;;6.04;100.00
13348;BME280;6743;49.934;9.138;2023-02-02T02:10:29;100898.53;;;6.13;100.00
13348;BME280;6743;49.934;9.138;2023-02-02T02:12:56;100903.09;;;6.11;100.00
13348;BME280;6743;49.934;9.138;2023-02-02T02:15:22;100875.94;;;5.99;100.00
13348;BME280;6743;49.934;9.138;2023-02-02T02:18:15;100892.81;;;6.08;100.00
13348;BME280;6743;49.934;9.138;2023-02-02T02:21:05;100890.41;;;6.05;100.00
13348;BME280;6743;49.934;9.138;2023-02-02T02:24:22;100893.16;;;6.03;100.00
13348;BME280;6743;49.934;9.138;2023-02-02T02:27:37;100902.16;;;6.01;100.00
13348;BME280;6743;49.934;9.138;2023-02-02T02:33:33;100891.84;;;5.98;100.00
13348;BME280;6743;49.934;9.138;2023-02-02T02:36:07;100887.63;;;5.95;100.00
13348;BME280;6743;49.934;9.138;2023-02-02T02:38:40;100899.75;;;5.98;100.00
13348;BME280;6743;49.934;9.138;2023-02-02T02:41:11;100896.16;;;5.99;100.00
13348;BME280;6743;49.934;9.138;2023-02-02T02:43:41;100910.16;;;5.99;100.00
13348;BME280;6743;49.934;9.138;2023-02-02T02:46:09;100894.34;;;5.99;100.00
13348;BME280;6743;49.934;9.138;2023-02-02T02:48:37;100887.78;;;5.93;100.00
13348;BME280;6743;49.934;9.138;2023-02-02T02:51:07;100897.00;;;5.99;100.00
13348;BME280;6743;49.934;9.138;2023-02-02T02:53:34;100903.94;;;6.00;100.00
13348;BME280;6743;49.934;9.138;2023-02-02T02:56:07;100903.00;;;6.01;100.00
13348;BME280;6743;49.934;9.138;2023-02-02T02:58:43;100899.50;;;6.01;100.00
13348;BME280;6743;49.934;9.138;2023-02-02T03:01:16;100908.25;;;6.01;100.00
13348;BME280;6743;49.934;9.138;2023-02-02T03:04:05;100895.91;;;6.02;100.00
13348;BME280;6743;49.934;9.138;2023-02-02T03:06:40;100896.88;;;6.01;100.00
13348;BME280;6743;49.934;9.138;2023-02-02T03:09:09;100884.56;;;6.01;100.00
13348;BME280;6743;49.934;9.138;2023-02-02T03:11:36;100888.97;;;6.01;100.00
13348;BME280;6743;49.934;9.138;2023-02-02T03:14:03;100895.09;;;6.01;100.00
13348;BME280;6743;49.934;9.138;2023-02-02T03:16:34;100891.63;;;6.01;100.00
13348;BME280;6743;49.934;9.138;2023-02-02T03:19:00;100888.13;;;6.00;100.00
13348;BME280;6743;49.934;9.138;2023-02-02T03:21:28;100888.97;;;6.01;100.00
13348;BME280;6743;49.934;9.138;2023-02-02T03:23:54;100882.03;;;6.00;100.00
13348;BME280;6743;49.934;9.138;2023-02-02T03:26:20;100889.94;;;6.00;100.00
13348;BME280;6743;49.934;9.138;2023-02-02T03:28:47;100885.63;;;5.99;100.00
13348;BME280;6743;49.934;9.138;2023-02-02T03:31:14;100894.34;;;5.99;100.00
13348;BME280;6743;49.934;9.138;2023-02-02T03:33:40;100890.03;;;5.98;100.00
13348;BME280;6743;49.934;9.138;2023-02-02T03:36:07;100889.09;;;5.99;100.00
13348;BME280;6743;49.934;9.138;2023-02-02T03:38:33;100868.97;;;5.87;100.00
13348;BME280;6743;49.934;9.138;2023-02-02T03:40:59;100888.25;;;5.99;100.00
13348;BME280;6743;49.934;9.138;2023-02-02T03:43:25;100880.34;;;5.99;100.00
13348;BME280;6743;49.934;9.138;2023-02-02T03:45:55;100889.94;;;6.00;100.00
13348;BME280;6743;49.934;9.138;2023-02-02T03:48:22;100886.56;;;5.98;100.00
13348;BME280;6743;49.934;9.138;2023-02-02T03:50:47;100886.56;;;5.98;100.00
13348;BME280;6743;49.934;9.138;2023-02-02T03:53:14;100884.91;;;5.97;100.00
13348;BME280;6743;49.934;9.138;2023-02-02T03:55:40;100879.25;;;5.90;100.00
13348;BME280;6743;49.934;9.138;2023-02-02T03:58:06;100886.47;;;5.99;100.00
13348;BME280;6743;49.934;9.138;2023-02-02T04:00:32;100889.09;;;5.99;100.00
13348;BME280;6743;49.934;9.138;2023-02-02T04:02:58;100883.72;;;6.01;100.00
13348;BME280;6743;49.934;9.138;2023-02-02T04:05:24;100879.28;;;6.01;100.00
13348;BME280;6743;49.934;9.138;2023-02-02T04:07:50;100866.72;;;5.93;100.00
13348;BME280;6743;49.934;9.138;2023-02-02T04:10:17;100890.63;;;6.02;100.00
13348;BME280;6743;49.934;9.138;2023-02-02T04:12:43;100887.19;;;6.01;100.00
13348;BME280;6743;49.934;9.138;2023-02-02T04:15:09;100890.63;;;6.02;100.00
13348;BME280;6743;49.934;9.138;2023-02-02T04:17:35;100888.97;;;6.01;100.00
13348;BME280;6743;49.934;9.138;2023-02-02T04:20:02;100884.66;;;6.00;100.00
13348;BME280;6743;49.934;9.138;2023-02-02T04:22:28;100885.38;;;6.02;100.00
13348;BME280;6743;49.934;9.138;2023-02-02T04:24:54;100893.25;;;6.02;100.00
13348;BME280;6743;49.934;9.138;2023-02-02T04:27:20;100896.75;;;6.02;100.00
13348;BME280;6743;49.934;9.138;2023-02-02T04:29:46;100894.09;;;6.02;100.00
13348;BME280;6743;49.934;9.138;2023-02-02T04:32:13;100900.22;;;6.03;100.00
13348;BME280;6743;49.934;9.138;2023-02-02T04:34:39;100898.41;;;6.03;100.00
13348;BME280;6743;49.934;9.138;2023-02-02T04:37:05;100905.38;;;6.04;100.00
13348;BME280;6743;49.934;9.138;2023-02-02T04:39:31;100911.47;;;6.05;100.00
13348;BME280;6743;49.934;9.138;2023-02-02T04:41:57;100914.84;;;6.07;100.00
13348;BME280;6743;49.934;9.138;2023-02-02T04:44:23;100912.09;;;6.08;100.00
13348;BME280;6743;49.934;9.138;2023-02-02T04:46:49;100912.09;;;6.08;100.00
13348;BME280;6743;49.934;9.138;2023-02-02T04:49:15;100909.31;;;6.10;100.00
13348;BME280;6743;49.934;9.138;2023-02-02T04:51:41;100917.22;;;6.10;100.00
13348;BME280;6743;49.934;9.138;2023-02-02T04:54:08;100923.31;;;6.10;100.00
13348;BME280;6743;49.934;9.138;2023-02-02T04:56:34;100926.78;;;6.11;100.00
13348;BME280;6743;49.934;9.138;2023-02-02T04:59:00;100926.78;;;6.11;100.00
13348;BME280;6743;49.934;9.138;2023-02-02T05:01:27;100904.78;;;6.01;100.00
13348;BME280;6743;49.934;9.138;2023-02-02T05:03:55;100929.09;;;6.15;100.00
13348;BME280;6743;49.934;9.138;2023-02-02T05:06:21;100923.94;;;6.14;100.00
13348;BME280;6743;49.934;9.138;2023-02-02T05:08:47;100942.84;;;6.19;100.00
13348;BME280;6743;49.934;9.138;2023-02-02T05:11:15;100938.31;;;6.21;100.00
13348;BME280;6743;49.934;9.138;2023-02-02T05:13:44;100947.06;;;6.21;100.00
13348;BME280;6743;49.934;9.138;2023-02-02T05:16:10;100947.91;;;6.22;100.00
13348;BME280;6743;49.934;9.138;2023-02-02T05:18:37;100957.44;;;6.23;100.00
13348;BME280;6743;49.934;9.138;2023-02-02T05:21:03;100955.66;;;6.23;100.00
13348;BME280;6743;49.934;9.138;2023-02-02T05:23:30;100948.00;;;6.20;100.00
13348;BME280;6743;49.934;9.138;2023-02-02T05:25:56;100953.00;;;6.23;100.00
13348;BME280;6743;49.934;9.138;2023-02-02T05:28:22;100960.81;;;6.25;100.00
13348;BME280;6743;49.934;9.138;2023-02-02T05:30:49;100963.44;;;6.25;100.00
13348;BME280;6743;49.934;9.138;2023-02-02T05:33:15;100957.09;;;6.27;100.00
13348;BME280;6743;49.934;9.138;2023-02-02T05:35:44;100962.37;;;6.27;100.00
13348;BME280;6743;49.934;9.138;2023-02-02T05:38:10;100959.75;;;6.27;100.00
13348;BME280;6743;49.934;9.138;2023-02-02T05:40:36;100965.59;;;6.31;100.00
13348;BME280;6743;49.934;9.138;2023-02-02T05:43:02;100959.37;;;6.32;100.00
13348;BME280;6743;49.934;9.138;2023-02-02T05:45:28;100966.31;;;6.33;100.00
13348;BME280;6743;49.934;9.138;2023-02-02T05:47:54;100971.47;;;6.35;100.00
13348;BME280;6743;49.934;9.138;2023-02-02T05:50:20;100962.72;;;6.34;100.00
13348;BME280;6743;49.934;9.138;2023-02-02T05:52:47;100955.66;;;6.35;100.00
13348;BME280;6743;49.934;9.138;2023-02-02T05:55:14;100963.69;;;6.33;100.00
13348;BME280;6743;49.934;9.138;2023-02-02T05:57:40;100965.38;;;6.34;100.00
13348;BME280;6743;49.934;9.138;2023-02-02T06:00:07;100962.72;;;6.34;100.00
13348;BME280;6743;49.934;9.138;2023-02-02T06:02:33;100965.25;;;6.36;100.00
13348;BME280;6743;49.934;9.138;2023-02-02T06:04:59;100970.53;;;6.36;100.00
13348;BME280;6743;49.934;9.138;2023-02-02T06:07:25;100965.47;;;6.32;100.00
13348;BME280;6743;49.934;9.138;2023-02-02T06:09:51;100972.19;;;6.37;100.00
13348;BME280;6743;49.934;9.138;2023-02-02T06:12:17;100974.00;;;6.36;100.00
13348;BME280;6743;49.934;9.138;2023-02-02T06:14:43;100973.16;;;6.36;100.00
13348;BME280;6743;49.934;9.138;2023-02-02T06:17:09;100959.75;;;6.27;100.00
13348;BME280;6743;49.934;9.138;2023-02-02T06:19:35;100977.72;;;6.33;100.00
13348;BME280;6743;49.934;9.138;2023-02-02T06:22:02;100956.59;;;6.22;100.00
13348;BME280;6743;49.934;9.138;2023-02-02T06:24:28;100982.13;;;6.33;100.00
13348;BME280;6743;49.934;9.138;2023-02-02T06:26:55;100982.25;;;6.31;100.00
13348;BME280;6743;49.934;9.138;2023-02-02T06:29:21;100969.94;;;6.21;100.00
13348;BME280;6743;49.934;9.138;2023-02-02T06:31:47;100978.88;;;6.29;100.00
13348;BME280;6743;49.934;9.138;2023-02-02T06:34:13;100982.34;;;6.30;100.00
13348;BME280;6743;49.934;9.138;2023-02-02T06:36:39;100993.88;;;6.29;100.00
13348;BME280;6743;49.934;9.138;2023-02-02T06:39:06;100985.97;;;6.29;100.00
13348;BME280;6743;49.934;9.138;2023-02-02T06:41:33;100979.87;;;6.28;100.00
13348;BME280;6743;49.934;9.138;2023-02-02T06:44:00;100981.78;;;6.26;100.00
13348;BME280;6743;49.934;9.138;2023-02-02T06:46:26;100987.78;;;6.28;100.00
13348;BME280;6743;49.934;9.138;2023-02-02T06:48:52;101005.22;;;6.29;100.00
13348;BME280;6743;49.934;9.138;2023-02-02T06:51:18;101023.34;;;6.34;100.00
13348;BME280;6743;49.934;9.138;2023-02-02T06:53:46;100988.22;;;6.22;100.00
13348;BME280;6743;49.934;9.138;2023-02-02T06:56:12;101011.72;;;6.37;100.00
13348;BME280;6743;49.934;9.138;2023-02-02T06:58:38;100999.50;;;6.36;100.00
13348;BME280;6743;49.934;9.138;2023-02-02T07:01:06;101002.25;;;6.34;100.00
13348;BME280;6743;49.934;9.138;2023-02-02T07:03:33;101007.53;;;6.34;100.00
13348;BME280;6743;49.934;9.138;2023-02-02T07:06:09;101014.59;;;6.33;100.00
13348;BME280;6743;49.934;9.138;2023-02-02T07:08:35;101003.22;;;6.33;100.00
13348;BME280;6743;49.934;9.138;2023-02-02T07:11:01;101000.69;;;6.31;100.00
13348;BME280;6743;49.934;9.138;2023-02-02T07:13:27;101008.72;;;6.30;100.00
13348;BME280;6743;49.934;9.138;2023-02-02T07:15:53;101006.22;;;6.28;100.00
13348;BME280;6743;49.934;9.138;2023-02-02T07:18:22;101005.38;;;6.28;100.00
13348;BME280;6743;49.934;9.138;2023-02-02T07:20:47;101006.06;;;6.30;100.00
13348;BME280;6743;49.934;9.138;2023-02-02T07:23:16;101008.59;;;6.31;100.00
13348;BME280;6743;49.934;9.138;2023-02-02T07:25:42;100992.66;;;6.33;100.00
13348;BME280;6743;49.934;9.138;2023-02-02T07:28:08;100994.34;;;6.34;100.00
13348;BME280;6743;49.934;9.138;2023-02-02T07:30:34;100996.03;;;6.35;100.00
13348;BME280;6743;49.934;9.138;2023-02-02T07:33:00;101008.12;;;6.38;100.00
13348;BME280;6743;49.934;9.138;2023-02-02T07:35:27;101001.06;;;6.38;100.00
13348;BME280;6743;49.934;9.138;2023-02-02T07:37:53;101010.63;;;6.39;100.00
13348;BME280;6743;49.934;9.138;2023-02-02T07:40:20;101005.16;;;6.42;100.00
13348;BME280;6743;49.934;9.138;2023-02-02T07:42:46;101005.00;;;6.32;100.00
13348;BME280;6743;49.934;9.138;2023-02-02T07:45:12;101024.06;;;6.47;100.00
13348;BME280;6743;49.934;9.138;2023-02-02T07:47:38;101013.25;;;6.50;100.00
13348;BME280;6743;49.934;9.138;2023-02-02T07:50:05;101032.44;;;6.52;100.00
13348;BME280;6743;49.934;9.138;2023-02-02T07:52:32;101029.69;;;6.54;100.00
13348;BME280;6743;49.934;9.138;2023-02-02T07:54:57;101031.38;;;6.55;100.00
13348;BME280;6743;49.934;9.138;2023-02-02T07:57:23;101041.81;;;6.56;100.00
13348;BME280;6743;49.934;9.138;2023-02-02T07:59:49;101033.91;;;6.56;100.00
13348;BME280;6743;49.934;9.138;2023-02-02T08:02:16;101039.03;;;6.58;100.00
13348;BME280;6743;49.934;9.138;2023-02-02T08:04:42;101046.09;;;6.57;100.00
13348;BME280;6743;49.934;9.138;2023-02-02T08:07:08;101065.28;;;6.59;100.00
13348;BME280;6743;49.934;9.138;2023-02-02T08:09:35;101059.06;;;6.60;100.00
13348;BME280;6743;49.934;9.138;2023-02-02T08:12:00;101050.19;;;6.61;100.00
13348;BME280;6743;49.934;9.138;2023-02-02T08:14:27;101043.22;;;6.60;100.00
13348;BME280;6743;49.934;9.138;2023-02-02T08:16:53;101046.72;;;6.61;100.00
13348;BME280;6743;49.934;9.138;2023-02-02T08:19:19;101052.81;;;6.61;100.00
13348;BME280;6743;49.934;9.138;2023-02-02T08:21:44;101048.28;;;6.63;100.00
13348;BME280;6743;49.934;9.138;2023-02-02T08:24:10;101046.44;;;6.64;100.00
13348;BME280;6743;49.934;9.138;2023-02-02T08:26:37;101047.28;;;6.64;100.00
13348;BME280;6743;49.934;9.138;2023-02-02T08:29:06;101048.13;;;6.65;100.00
13348;BME280;6743;49.934;9.138;2023-02-02T08:31:33;101048.88;;;6.67;100.00
13348;BME280;6743;49.934;9.138;2023-02-02T08:34:00;101062.88;;;6.67;100.00
13348;BME280;6743;49.934;9.138;2023-02-02T08:36:28;101054.88;;;6.69;100.00
13348;BME280;6743;49.934;9.138;2023-02-02T08:38:55;101063.47;;;6.71;100.00
13348;BME280;6743;49.934;9.138;2023-02-02T08:41:24;101066.00;;;6.72;100.00
13348;BME280;6743;49.934;9.138;2023-02-02T08:43:51;101072.00;;;6.75;100.00
13348;BME280;6743;49.934;9.138;2023-02-02T08:46:18;101073.56;;;6.77;100.00
13348;BME280;6743;49.934;9.138;2023-02-02T08:48:44;101076.06;;;6.79;100.00
13348;BME280;6743;49.934;9.138;2023-02-02T08:51:12;101075.09;;;6.80;100.00
13348;BME280;6743;49.934;9.138;2023-02-02T08:53:39;101078.47;;;6.82;100.00
13348;BME280;6743;49.934;9.138;2023-02-02T08:56:08;101070.44;;;6.83;100.00
13348;BME280;6743;49.934;9.138;2023-02-02T08:58:34;101073.09;;;6.83;100.00
13348;BME280;6743;49.934;9.138;2023-02-02T09:01:06;101073.78;;;6.85;100.00
13348;BME280;6743;49.934;9.138;2023-02-02T09:03:33;101068.38;;;6.87;100.00
13348;BME280;6743;49.934;9.138;2023-02-02T09:06:03;101073.66;;;6.87;100.00
13348;BME280;6743;49.934;9.138;2023-02-02T09:08:29;101076.19;;;6.88;100.00
13348;BME280;6743;49.934;9.138;2023-02-02T09:10:55;101085.78;;;6.89;100.00
13348;BME280;6743;49.934;9.138;2023-02-02T09:13:21;101075.69;;;6.94;100.00
13348;BME280;6743;49.934;9.138;2023-02-02T09:15:47;101077.37;;;6.95;100.00
13348;BME280;6743;49.934;9.138;2023-02-02T09:18:14;101075.31;;;6.99;100.00
13348;BME280;6743;49.934;9.138;2023-02-02T09:20:40;101078.56;;;7.02;100.00
13348;BME280;6743;49.934;9.138;2023-02-02T09:23:07;101080.13;;;7.05;100.00
13348;BME280;6743;49.934;9.138;2023-02-02T09:25:34;101093.91;;;7.08;100.00
13348;BME280;6743;49.934;9.138;2023-02-02T09:28:00;101087.69;;;7.09;100.00
13348;BME280;6743;49.934;9.138;2023-02-02T09:30:26;101090.31;;;7.09;100.00
13348;BME280;6743;49.934;9.138;2023-02-02T09:32:52;101086.59;;;7.12;100.00
13348;BME280;6743;49.934;9.138;2023-02-02T09:35:18;101086.72;;;7.10;100.00
13348;BME280;6743;49.934;9.138;2023-02-02T09:37:44;101098.97;;;7.11;100.00
13348;BME280;6743;49.934;9.138;2023-02-02T09:40:14;101086.47;;;7.13;100.00
13348;BME280;6743;49.934;9.138;2023-02-02T09:42:52;101085.63;;;7.13;100.00
13348;BME280;6743;49.934;9.138;2023-02-02T09:45:24;101101.44;;;7.13;100.00
13348;BME280;6743;49.934;9.138;2023-02-02T09:47:54;101093.53;;;7.13;100.00
13348;BME280;6743;49.934;9.138;2023-02-02T09:50:38;101101.44;;;7.13;100.00
13348;BME280;6743;49.934;9.138;2023-02-02T09:53:15;101106.50;;;7.16;100.00
13348;BME280;6743;49.934;9.138;2023-02-02T09:55:45;101101.09;;;7.18;100.00
13348;BME280;6743;49.934;9.138;2023-02-02T09:58:17;101123.06;;;7.18;100.00
13348;BME280;6743;49.934;9.138;2023-02-02T10:00:47;101112.25;;;7.21;100.00
13348;BME280;6743;49.934;9.138;2023-02-02T10:03:18;101109.38;;;7.24;100.00
13348;BME280;6743;49.934;9.138;2023-02-02T10:05:50;101110.34;;;7.12;100.00
13348;BME280;6743;49.934;9.138;2023-02-02T10:08:25;101129.53;;;7.25;100.00
13348;BME280;6743;49.934;9.138;2023-02-02T10:10:53;101130.47;;;7.24;100.00
13348;BME280;6743;49.934;9.138;2023-02-02T10:13:24;101124.38;;;7.24;100.00
13348;BME280;6743;49.934;9.138;2023-02-02T10:15:57;101123.41;;;7.25;100.00
13348;BME280;6743;49.934;9.138;2023-02-02T10:18:35;101132.03;;;7.27;100.00
13348;BME280;6743;49.934;9.138;2023-02-02T10:21:07;101130.22;;;7.27;100.00
13348;BME280;6743;49.934;9.138;2023-02-02T10:23:36;101132.88;;;7.27;100.00
13348;BME280;6743;49.934;9.138;2023-02-02T10:26:08;101137.91;;;7.30;100.00
13348;BME280;6743;49.934;9.138;2023-02-02T10:28:43;101150.84;;;7.33;100.00
13348;BME280;6743;49.934;9.138;2023-02-02T10:31:21;101152.41;;;7.36;100.00
13348;BME280;6743;49.934;9.138;2023-02-02T10:34:00;101143.44;;;7.38;100.00
13348;BME280;6743;49.934;9.138;2023-02-02T10:36:33;101153.03;;;7.39;100.00
13348;BME280;6743;49.934;9.138;2023-02-02T10:39:10;101155.53;;;7.41;100.00
13348;BME280;6743;49.934;9.138;2023-02-02T10:41:40;101153.59;;;7.43;100.00
13348;BME280;6743;49.934;9.138;2023-02-02T10:44:16;101153.59;;;7.43;100.00
13348;BME280;6743;49.934;9.138;2023-02-02T10:46:47;101158.66;;;7.46;100.00
13348;BME280;6743;49.934;9.138;2023-02-02T10:49:21;101152.31;;;7.37;100.00
13348;BME280;6743;49.934;9.138;2023-02-02T10:51:53;101174.34;;;7.47;100.00
13348;BME280;6743;49.934;9.138;2023-02-02T10:54:42;101176.03;;;7.48;100.00
13348;BME280;6743;49.934;9.138;2023-02-02T10:57:12;101164.78;;;7.46;100.00
13348;BME280;6743;49.934;9.138;2023-02-02T10:59:43;101170.06;;;7.46;100.00
13348;BME280;6743;49.934;9.138;2023-02-02T11:02:11;101151.47;;;7.37;100.00
13348;BME280;6743;49.934;9.138;2023-02-02T11:04:37;101170.75;;;7.48;100.00
13348;BME280;6743;49.934;9.138;2023-02-02T11:07:24;101157.44;;;7.50;100.00
13348;BME280;6743;49.934;9.138;2023-02-02T11:09:51;101149.88;;;7.45;100.00
13348;BME280;6743;49.934;9.138;2023-02-02T11:12:22;101158.72;;;7.56;100.00
13348;BME280;6743;49.934;9.138;2023-02-02T11:14:54;101159.19;;;7.61;100.00
13348;BME280;6743;49.934;9.138;2023-02-02T11:17:22;101162.81;;;7.60;100.00
13348;BME280;6743;49.934;9.138;2023-02-02T11:19:49;101179.25;;;7.63;100.00
13348;BME280;6743;49.934;9.138;2023-02-02T11:22:25;101161.59;;;7.64;100.00
13348;BME280;6743;49.934;9.138;2023-02-02T11:24:53;101157.88;;;7.66;100.00
13348;BME280;6743;49.934;9.138;2023-02-02T11:27:21;101164.97;;;7.66;100.00
13348;BME280;6743;49.934;9.138;2023-02-02T11:29:49;101151.75;;;7.66;100.00
13348;BME280;6743;49.934;9.138;2023-02-02T11:32:22;101161.09;;;7.70;100.00
13348;BME280;6743;49.934;9.138;2023-02-02T11:35:12;101162.06;;;7.69;100.00
13348;BME280;6743;49.934;9.138;2023-02-02T11:37:52;101162.91;;;7.69;100.00
13348;BME280;6743;49.934;9.138;2023-02-02T11:40:26;101154.12;;;7.69;100.00
13348;BME280;6743;49.934;9.138;2023-02-02T11:42:54;101154.12;;;7.69;100.00
13348;BME280;6743;49.934;9.138;2023-02-02T11:45:29;101153.06;;;7.71;100.00
13348;BME280;6743;49.934;9.138;2023-02-02T11:48:01;101157.50;;;7.71;100.00
13348;BME280;6743;49.934;9.138;2023-02-02T11:50:29;101143.22;;;7.62;100.00
13348;BME280;6743;49.934;9.138;2023-02-02T11:52:56;101151.16;;;7.73;100.00
13348;BME280;6743;49.934;9.138;2023-02-02T11:55:25;101140.69;;;7.72;100.00
13348;BME280;6743;49.934;9.138;2023-02-02T11:58:18;101147.66;;;7.73;100.00
13348;BME280;6743;49.934;9.138;2023-02-02T12:00:48;101151.16;;;7.73;100.00
13348;BME280;6743;49.934;9.138;2023-02-02T12:03:26;101144.06;;;7.74;100.00
13348;BME280;6743;49.934;9.138;2023-02-02T12:05:53;101145.13;;;7.71;100.00
13348;BME280;6743;49.934;9.138;2023-02-02T12:08:20;101147.91;;;7.70;100.00
13348;BME280;6743;49.934;9.138;2023-02-02T12:10:57;101143.47;;;7.70;100.00
13348;BME280;6743;49.934;9.138;2023-02-02T12:13:40;101145.87;;;7.73;100.00
13348;BME280;6743;49.934;9.138;2023-02-02T12:16:36;101150.31;;;7.73;100.00
13348;BME280;6743;49.934;9.138;2023-02-02T12:19:17;101145.13;;;7.71;100.00
13348;BME280;6743;49.934;9.138;2023-02-02T12:21:54;101152.34;;;7.69;100.00
13348;BME280;6743;49.934;9.138;2023-02-02T12:24:30;101157.75;;;7.68;100.00
13348;BME280;6743;49.934;9.138;2023-02-02T12:27:08;101147.31;;;7.66;100.00
13348;BME280;6743;49.934;9.138;2023-02-02T12:29:59;101158.56;;;7.68;100.00
13348;BME280;6743;49.934;9.138;2023-02-02T12:32:44;101149.00;;;7.67;100.00
13348;BME280;6743;49.934;9.138;2023-02-02T12:35:40;101155.09;;;7.68;100.00
13348;BME280;6743;49.934;9.138;2023-02-02T12:38:17;101155.81;;;7.70;100.00
13348;BME280;6743;49.934;9.138;2023-02-02T12:41:20;101142.28;;;7.63;100.00
13348;BME280;6743;49.934;9.138;2023-02-02T12:43:51;101153.06;;;7.71;100.00
13348;BME280;6743;49.934;9.138;2023-02-02T12:46:32;101154.75;;;7.72;100.00
13348;BME280;6743;49.934;9.138;2023-02-02T12:49:22;101150.03;;;7.76;100.00
13348;BME280;6743;49.934;9.138;2023-02-02T12:52:05;101163.97;;;7.78;100.00
13348;BME280;6743;49.934;9.138;2023-02-02T12:54:49;101155.94;;;7.79;100.00
13348;BME280;6743;49.934;9.138;2023-02-02T12:57:31;101153.28;;;7.79;100.00
13348;BME280;6743;49.934;9.138;2023-02-02T13:00:24;101155.81;;;7.81;100.00
13348;BME280;6743;49.934;9.138;2023-02-02T13:03:04;101146.53;;;7.86;100.00
13348;BME280;6743;49.934;9.138;2023-02-02T13:05:51;101149.19;;;7.86;100.00
13348;BME280;6743;49.934;9.138;2023-02-02T13:08:23;101148.06;;;7.89;100.00
13348;BME280;6743;49.934;9.138;2023-02-02T13:10:53;101154.78;;;7.93;100.00
13348;BME280;6743;49.934;9.138;2023-02-02T13:13:23;101153.56;;;7.97;100.00
13348;BME280;6743;49.934;9.138;2023-02-02T13:15:53;101160.41;;;8.00;100.00
13348;BME280;6743;49.934;9.138;2023-02-02T13:18:22;101156.53;;;8.04;100.00